This is the latest recevied weather packets stored in our database for station/object K3RTA-2. If no packets are shown the sender has not sent any weather packets the latest 10 day(s).
| Time | Temp. | Humidity | Pressure | Rain* | Wind** | Luminosity | Snow |
|---|---|---|---|---|---|---|---|
| 1777393804 | 17.78° C | 56% | 1021.1 hPa | 0 mm | - | - | - |
| 1777390205 | 17.22° C | 54% | 1021.7 hPa | 0 mm | - | - | - |
| 1777388404 | 17.22° C | 54% | 1022.1 hPa | 0 mm | - | - | - |
| 1777387206 | 17.22° C | 56% | 1022 hPa | 0 mm | - | - | - |
| 1777385703 | 16.67° C | 58% | 1022.1 hPa | 0 mm | - | - | - |
| 1777384804 | 15.56° C | 62% | 1022.1 hPa | 0 mm | - | - | - |
| 1777384505 | 15.56° C | 60% | 1022.1 hPa | 0 mm | - | - | - |
| 1777384204 | 16.11° C | 61% | 1022.1 hPa | 0 mm | - | - | - |
| 1777381804 | 13.33° C | 71% | 1022.8 hPa | 0 mm | - | - | - |
| 1777377306 | 8.89° C | 96% | 1022.5 hPa | 0 mm | - | - | - |
| 1777377004 | 8.33° C | 96% | 1022.5 hPa | 0 mm | - | - | - |
| 1777371005 | 1.67° C | 96% | 1022.1 hPa | 0 mm | - | - | - |
| 1777369505 | 1.67° C | 96% | 1022.2 hPa | 0 mm | - | - | - |
| 1777368305 | 2.22° C | 96% | 1022.2 hPa | 0 mm | - | - | - |
| 1777368004 | 2.22° C | 96% | 1022.1 hPa | 0 mm | - | - | - |
| 1777367704 | 2.22° C | 96% | 1022.1 hPa | 0 mm | - | - | - |
| 1777366804 | 2.22° C | 96% | 1022.6 hPa | 0 mm | - | - | - |
| 1777366205 | 2.22° C | 96% | 1022.5 hPa | 0 mm | - | - | - |
| 1777363804 | 2.78° C | 96% | 1023 hPa | 0 mm | - | - | - |
| 1777360504 | 2.78° C | 95% | 1022.3 hPa | 0 mm | - | - | - |
| 1777357505 | 3.33° C | 94% | 1022.9 hPa | 0 mm | - | - | - |
| 1777349104 | 5° C | 91% | 1024.3 hPa | 0 mm | - | - | - |
| 1777344005 | 6.67° C | 84% | 1025 hPa | 0 mm | - | - | - |
| 1777341904 | 8.33° C | 80% | 1025.2 hPa | 0 mm | - | - | - |
| 1777333205 | 12.22° C | 63% | 1024.5 hPa | 0 mm | - | - | - |
* Rain latest hour (hover to see other rain measurements)
** Current wind speed in m/s (hover to see current wind gust speed)